sensor_id;sensor_type;location;lat;lon;timestamp;pressure;altitude;pressure_sealevel;temperature;humidity
10464;BME280;5279;42.048;24.638;2023-11-18T00:00:14;96495.91;;;10.33;100.00
10464;BME280;5279;42.048;24.638;2023-11-18T00:02:44;96502.16;;;10.40;100.00
10464;BME280;5279;42.048;24.638;2023-11-18T00:05:11;96498.19;;;10.44;100.00
10464;BME280;5279;42.048;24.638;2023-11-18T00:07:39;96510.09;;;10.48;100.00
10464;BME280;5279;42.048;24.638;2023-11-18T00:10:07;96503.81;;;10.41;100.00
10464;BME280;5279;42.048;24.638;2023-11-18T00:12:35;96510.09;;;10.40;100.00
10464;BME280;5279;42.048;24.638;2023-11-18T00:15:02;96526.34;;;10.45;100.00
10464;BME280;5279;42.048;24.638;2023-11-18T00:17:30;96524.34;;;10.47;100.00
10464;BME280;5279;42.048;24.638;2023-11-18T00:19:58;96525.81;;;10.58;100.00
10464;BME280;5279;42.048;24.638;2023-11-18T00:22:25;96526.06;;;10.71;100.00
10464;BME280;5279;42.048;24.638;2023-11-18T00:24:53;96531.22;;;10.72;100.00
10464;BME280;5279;42.048;24.638;2023-11-18T00:27:20;96536.47;;;10.80;100.00
10464;BME280;5279;42.048;24.638;2023-11-18T00:29:48;96521.88;;;10.84;100.00
10464;BME280;5279;42.048;24.638;2023-11-18T00:32:15;96525.72;;;10.82;100.00
10464;BME280;5279;42.048;24.638;2023-11-18T00:34:42;96530.81;;;10.83;100.00
10464;BME280;5279;42.048;24.638;2023-11-18T00:37:11;96531.47;;;10.85;100.00
10464;BME280;5279;42.048;24.638;2023-11-18T00:39:38;96524.91;;;10.73;100.00
10464;BME280;5279;42.048;24.638;2023-11-18T00:42:05;96524.94;;;10.65;100.00
10464;BME280;5279;42.048;24.638;2023-11-18T00:44:32;96528.91;;;10.69;100.00
10464;BME280;5279;42.048;24.638;2023-11-18T00:46:59;96523.81;;;10.60;100.00
10464;BME280;5279;42.048;24.638;2023-11-18T00:49:28;96519.69;;;10.57;100.00
10464;BME280;5279;42.048;24.638;2023-11-18T00:51:58;96553.13;;;10.50;100.00
10464;BME280;5279;42.048;24.638;2023-11-18T00:54:26;96548.19;;;10.39;100.00
10464;BME280;5279;42.048;24.638;2023-11-18T00:56:53;96543.25;;;10.36;100.00
10464;BME280;5279;42.048;24.638;2023-11-18T00:59:20;96539.75;;;10.27;100.00
10464;BME280;5279;42.048;24.638;2023-11-18T01:01:46;96540.09;;;10.24;100.00
10464;BME280;5279;42.048;24.638;2023-11-18T01:04:14;96543.94;;;10.14;100.00
10464;BME280;5279;42.048;24.638;2023-11-18T01:06:42;96551.19;;;9.96;100.00
10464;BME280;5279;42.048;24.638;2023-11-18T01:09:09;96556.84;;;9.84;100.00
10464;BME280;5279;42.048;24.638;2023-11-18T01:11:38;96561.44;;;9.82;100.00
10464;BME280;5279;42.048;24.638;2023-11-18T01:14:05;96574.69;;;9.74;100.00
10464;BME280;5279;42.048;24.638;2023-11-18T01:16:33;96568.38;;;9.67;100.00
10464;BME280;5279;42.048;24.638;2023-11-18T01:19:00;96561.28;;;9.60;100.00
10464;BME280;5279;42.048;24.638;2023-11-18T01:21:26;96566.91;;;9.57;100.00
10464;BME280;5279;42.048;24.638;2023-11-18T01:23:54;96581.56;;;9.43;100.00
10464;BME280;5279;42.048;24.638;2023-11-18T01:26:20;96583.09;;;9.54;100.00
10464;BME280;5279;42.048;24.638;2023-11-18T01:28:50;96575.97;;;9.46;100.00
10464;BME280;5279;42.048;24.638;2023-11-18T01:31:17;96585.22;;;9.42;100.00
10464;BME280;5279;42.048;24.638;2023-11-18T01:33:44;96574.13;;;9.39;100.00
10464;BME280;5279;42.048;24.638;2023-11-18T01:36:12;96567.00;;;9.31;100.00
10464;BME280;5279;42.048;24.638;2023-11-18T01:38:39;96567.97;;;9.22;100.00
10464;BME280;5279;42.048;24.638;2023-11-18T01:41:06;96555.91;;;9.19;100.00
10464;BME280;5279;42.048;24.638;2023-11-18T01:43:34;96574.72;;;9.08;100.00
10464;BME280;5279;42.048;24.638;2023-11-18T01:46:05;96591.28;;;8.85;100.00
10464;BME280;5279;42.048;24.638;2023-11-18T01:48:32;96586.28;;;8.73;100.00
10464;BME280;5279;42.048;24.638;2023-11-18T01:51:01;96596.19;;;8.71;100.00
10464;BME280;5279;42.048;24.638;2023-11-18T01:53:31;96599.09;;;8.60;100.00
10464;BME280;5279;42.048;24.638;2023-11-18T01:55:59;96598.41;;;8.50;100.00
10464;BME280;5279;42.048;24.638;2023-11-18T01:58:26;96584.19;;;8.51;100.00
10464;BME280;5279;42.048;24.638;2023-11-18T02:00:53;96584.63;;;8.39;100.00
10464;BME280;5279;42.048;24.638;2023-11-18T02:03:21;96584.72;;;8.29;100.00
10464;BME280;5279;42.048;24.638;2023-11-18T02:05:48;96585.00;;;8.26;100.00
10464;BME280;5279;42.048;24.638;2023-11-18T02:08:17;96582.91;;;8.12;100.00
10464;BME280;5279;42.048;24.638;2023-11-18T02:10:48;96591.00;;;8.10;100.00
10464;BME280;5279;42.048;24.638;2023-11-18T02:13:22;96594.34;;;7.95;100.00
10464;BME280;5279;42.048;24.638;2023-11-18T02:15:53;96596.75;;;7.88;100.00
10464;BME280;5279;42.048;24.638;2023-11-18T02:18:22;96595.91;;;7.88;100.00
10464;BME280;5279;42.048;24.638;2023-11-18T02:20:51;96605.59;;;7.79;100.00
10464;BME280;5279;42.048;24.638;2023-11-18T02:23:19;96607.69;;;7.76;100.00
10464;BME280;5279;42.048;24.638;2023-11-18T02:25:49;96616.06;;;7.71;100.00
10464;BME280;5279;42.048;24.638;2023-11-18T02:28:16;96600.31;;;7.61;100.00
10464;BME280;5279;42.048;24.638;2023-11-18T02:30:44;96595.88;;;7.62;100.00
10464;BME280;5279;42.048;24.638;2023-11-18T02:33:15;96596.63;;;7.54;100.00
10464;BME280;5279;42.048;24.638;2023-11-18T02:35:50;96620.94;;;7.48;100.00
10464;BME280;5279;42.048;24.638;2023-11-18T02:38:20;96610.31;;;7.40;100.00
10464;BME280;5279;42.048;24.638;2023-11-18T02:40:52;96598.88;;;7.32;100.00
10464;BME280;5279;42.048;24.638;2023-11-18T02:43:23;96612.78;;;7.24;100.00
10464;BME280;5279;42.048;24.638;2023-11-18T02:45:51;96620.25;;;7.29;100.00
10464;BME280;5279;42.048;24.638;2023-11-18T02:48:20;96616.91;;;7.27;100.00
10464;BME280;5279;42.048;24.638;2023-11-18T02:50:47;96613.63;;;7.25;100.00
10464;BME280;5279;42.048;24.638;2023-11-18T02:53:14;96625.81;;;7.26;100.00
10464;BME280;5279;42.048;24.638;2023-11-18T02:55:40;96614.75;;;7.22;100.00
10464;BME280;5279;42.048;24.638;2023-11-18T02:58:09;96634.38;;;7.28;100.00
10464;BME280;5279;42.048;24.638;2023-11-18T03:00:35;96631.13;;;7.16;100.00
10464;BME280;5279;42.048;24.638;2023-11-18T03:03:04;96633.78;;;7.16;100.00
10464;BME280;5279;42.048;24.638;2023-11-18T03:05:31;96624.06;;;7.17;100.00
10464;BME280;5279;42.048;24.638;2023-11-18T03:07:58;96631.72;;;7.10;100.00
10464;BME280;5279;42.048;24.638;2023-11-18T03:10:25;96624.13;;;7.07;100.00
10464;BME280;5279;42.048;24.638;2023-11-18T03:12:52;96631.78;;;7.00;100.00
10464;BME280;5279;42.048;24.638;2023-11-18T03:15:22;96633.16;;;7.04;100.00
10464;BME280;5279;42.048;24.638;2023-11-18T03:17:49;96635.81;;;6.95;100.00
10464;BME280;5279;42.048;24.638;2023-11-18T03:20:17;96634.03;;;6.95;100.00
10464;BME280;5279;42.048;24.638;2023-11-18T03:22:46;96633.44;;;7.01;100.00
10464;BME280;5279;42.048;24.638;2023-11-18T03:25:14;96623.19;;;6.98;100.00
10464;BME280;5279;42.048;24.638;2023-11-18T03:27:41;96636.75;;;7.03;100.00
10464;BME280;5279;42.048;24.638;2023-11-18T03:30:09;96636.75;;;7.03;100.00
10464;BME280;5279;42.048;24.638;2023-11-18T03:32:40;96630.97;;;7.18;100.00
10464;BME280;5279;42.048;24.638;2023-11-18T03:35:07;96632.41;;;7.12;100.00
10464;BME280;5279;42.048;24.638;2023-11-18T03:37:35;96643.63;;;7.14;100.00
10464;BME280;5279;42.048;24.638;2023-11-18T03:40:05;96651.13;;;7.09;100.00
10464;BME280;5279;42.048;24.638;2023-11-18T03:42:32;96657.78;;;7.13;100.00
10464;BME280;5279;42.048;24.638;2023-11-18T03:44:59;96651.13;;;7.09;100.00
10464;BME280;5279;42.048;24.638;2023-11-18T03:47:26;96649.41;;;7.18;100.00
10464;BME280;5279;42.048;24.638;2023-11-18T03:49:54;96655.28;;;7.11;100.00
10464;BME280;5279;42.048;24.638;2023-11-18T03:52:21;96659.03;;;7.09;100.00
10464;BME280;5279;42.048;24.638;2023-11-18T03:54:48;96654.22;;;7.04;100.00
10464;BME280;5279;42.048;24.638;2023-11-18T03:57:15;96635.63;;;7.06;100.00
10464;BME280;5279;42.048;24.638;2023-11-18T03:59:42;96638.97;;;7.08;100.00
10464;BME280;5279;42.048;24.638;2023-11-18T04:02:09;96634.28;;;7.02;100.00
10464;BME280;5279;42.048;24.638;2023-11-18T04:04:36;96638.97;;;7.08;100.00
10464;BME280;5279;42.048;24.638;2023-11-18T04:07:05;96642.31;;;7.00;100.00
10464;BME280;5279;42.048;24.638;2023-11-18T04:09:32;96637.19;;;6.99;100.00
10464;BME280;5279;42.048;24.638;2023-11-18T04:12:01;96644.59;;;6.86;100.00
10464;BME280;5279;42.048;24.638;2023-11-18T04:14:28;96629.88;;;6.93;100.00
10464;BME280;5279;42.048;24.638;2023-11-18T04:16:55;96634.06;;;6.86;100.00
10464;BME280;5279;42.048;24.638;2023-11-18T04:19:23;96641.50;;;6.90;100.00
10464;BME280;5279;42.048;24.638;2023-11-18T04:21:50;96632.94;;;6.88;100.00
10464;BME280;5279;42.048;24.638;2023-11-18T04:24:19;96632.66;;;6.91;100.00
10464;BME280;5279;42.048;24.638;2023-11-18T04:26:45;96639.34;;;6.86;100.00
10464;BME280;5279;42.048;24.638;2023-11-18T04:29:13;96641.28;;;6.84;100.00
10464;BME280;5279;42.048;24.638;2023-11-18T04:31:40;96632.69;;;6.82;100.00
10464;BME280;5279;42.048;24.638;2023-11-18T04:34:07;96644.59;;;6.86;100.00
10464;BME280;5279;42.048;24.638;2023-11-18T04:36:34;96624.50;;;6.85;100.00
10464;BME280;5279;42.048;24.638;2023-11-18T04:39:01;96638.25;;;6.79;100.00
10464;BME280;5279;42.048;24.638;2023-11-18T04:41:29;96647.72;;;6.72;100.00
10464;BME280;5279;42.048;24.638;2023-11-18T04:43:57;96664.38;;;6.63;100.00
10464;BME280;5279;42.048;24.638;2023-11-18T04:46:23;96667.97;;;6.62;100.00
10464;BME280;5279;42.048;24.638;2023-11-18T04:48:51;96673.41;;;6.50;100.00
10464;BME280;5279;42.048;24.638;2023-11-18T04:51:20;96668.63;;;6.64;100.00
10464;BME280;5279;42.048;24.638;2023-11-18T04:53:47;96661.28;;;6.67;100.00
10464;BME280;5279;42.048;24.638;2023-11-18T04:56:14;96657.44;;;6.62;100.00
10464;BME280;5279;42.048;24.638;2023-11-18T04:58:46;96654.13;;;6.59;100.00
10464;BME280;5279;42.048;24.638;2023-11-18T05:01:13;96667.56;;;6.56;100.00
10464;BME280;5279;42.048;24.638;2023-11-18T05:03:40;96664.94;;;6.56;100.00
10464;BME280;5279;42.048;24.638;2023-11-18T05:06:07;96661.59;;;6.54;100.00
10464;BME280;5279;42.048;24.638;2023-11-18T05:08:34;96667.16;;;6.51;100.00
10464;BME280;5279;42.048;24.638;2023-11-18T05:11:02;96657.44;;;6.52;100.00
10464;BME280;5279;42.048;24.638;2023-11-18T05:13:30;96658.00;;;6.55;100.00
10464;BME280;5279;42.048;24.638;2023-11-18T05:16:03;96666.47;;;6.49;100.00
10464;BME280;5279;42.048;24.638;2023-11-18T05:18:30;96661.03;;;6.60;100.00
10464;BME280;5279;42.048;24.638;2023-11-18T05:21:01;96651.91;;;6.55;100.00
10464;BME280;5279;42.048;24.638;2023-11-18T05:23:30;96655.66;;;6.52;100.00
10464;BME280;5279;42.048;24.638;2023-11-18T05:25:57;96650.25;;;6.54;100.00
10464;BME280;5279;42.048;24.638;2023-11-18T05:28:25;96661.59;;;6.54;100.00
10464;BME280;5279;42.048;24.638;2023-11-18T05:30:51;96658.97;;;6.54;100.00
10464;BME280;5279;42.048;24.638;2023-11-18T05:33:23;96663.41;;;6.54;100.00
10464;BME280;5279;42.048;24.638;2023-11-18T05:35:51;96677.66;;;6.51;100.00
10464;BME280;5279;42.048;24.638;2023-11-18T05:38:20;96678.94;;;6.47;100.00
10464;BME280;5279;42.048;24.638;2023-11-18T05:40:49;96681.56;;;6.47;100.00
10464;BME280;5279;42.048;24.638;2023-11-18T05:43:22;96698.16;;;6.48;100.00
10464;BME280;5279;42.048;24.638;2023-11-18T05:45:50;96698.44;;;6.54;100.00
10464;BME280;5279;42.048;24.638;2023-11-18T05:48:41;96708.97;;;6.54;100.00
10464;BME280;5279;42.048;24.638;2023-11-18T05:51:09;96709.69;;;6.56;100.00
10464;BME280;5279;42.048;24.638;2023-11-18T05:53:43;96699.94;;;6.57;100.00
10464;BME280;5279;42.048;24.638;2023-11-18T05:56:11;96695.41;;;6.59;100.00
10464;BME280;5279;42.048;24.638;2023-11-18T05:58:38;96697.59;;;6.64;100.00
10464;BME280;5279;42.048;24.638;2023-11-18T06:01:05;96718.66;;;6.64;100.00
10464;BME280;5279;42.048;24.638;2023-11-18T06:03:34;96732.53;;;6.56;100.00
10464;BME280;5279;42.048;24.638;2023-11-18T06:06:06;96744.72;;;6.47;100.00
10464;BME280;5279;42.048;24.638;2023-11-18T06:08:33;96762.88;;;6.50;100.00
10464;BME280;5279;42.048;24.638;2023-11-18T06:11:00;96766.19;;;6.52;100.00
10464;BME280;5279;42.048;24.638;2023-11-18T06:13:43;96760.25;;;6.50;100.00
10464;BME280;5279;42.048;24.638;2023-11-18T06:16:14;96751.91;;;6.45;100.00
10464;BME280;5279;42.048;24.638;2023-11-18T06:19:02;96761.19;;;6.40;100.00
10464;BME280;5279;42.048;24.638;2023-11-18T06:21:32;96742.09;;;6.28;100.00
10464;BME280;5279;42.048;24.638;2023-11-18T06:24:00;96756.09;;;6.19;100.00
10464;BME280;5279;42.048;24.638;2023-11-18T06:26:29;96766.59;;;6.19;100.00
10464;BME280;5279;42.048;24.638;2023-11-18T06:28:56;96761.91;;;6.23;100.00
10464;BME280;5279;42.048;24.638;2023-11-18T06:31:24;96765.50;;;6.22;100.00
10464;BME280;5279;42.048;24.638;2023-11-18T06:33:51;96749.16;;;6.18;100.00
10464;BME280;5279;42.048;24.638;2023-11-18T06:36:19;96780.31;;;6.13;100.00
10464;BME280;5279;42.048;24.638;2023-11-18T06:38:49;96753.03;;;6.14;100.00
10464;BME280;5279;42.048;24.638;2023-11-18T06:41:17;96765.91;;;6.17;100.00
10464;BME280;5279;42.048;24.638;2023-11-18T06:43:45;96782.22;;;6.11;96.73
10464;BME280;5279;42.048;24.638;2023-11-18T06:46:23;96792.63;;;6.13;97.52
10464;BME280;5279;42.048;24.638;2023-11-18T06:48:50;96785.56;;;6.13;97.13
10464;BME280;5279;42.048;24.638;2023-11-18T06:51:19;96776.28;;;6.09;100.00
10464;BME280;5279;42.048;24.638;2023-11-18T06:53:50;96789.97;;;6.03;96.93
10464;BME280;5279;42.048;24.638;2023-11-18T06:56:17;96797.31;;;5.99;95.63
10464;BME280;5279;42.048;24.638;2023-11-18T06:58:44;96807.53;;;6.02;96.49
10464;BME280;5279;42.048;24.638;2023-11-18T07:01:13;96809.22;;;6.03;95.09
10464;BME280;5279;42.048;24.638;2023-11-18T07:03:40;96796.19;;;6.02;91.99
10464;BME280;5279;42.048;24.638;2023-11-18T07:06:08;96805.91;;;6.01;88.52
10464;BME280;5279;42.048;24.638;2023-11-18T07:08:35;96799.81;;;6.01;87.59
10464;BME280;5279;42.048;24.638;2023-11-18T07:11:04;96791.22;;;5.99;90.68
10464;BME280;5279;42.048;24.638;2023-11-18T07:13:31;96800.75;;;6.00;91.87
10464;BME280;5279;42.048;24.638;2023-11-18T07:16:01;96787.34;;;6.03;90.16
10464;BME280;5279;42.048;24.638;2023-11-18T07:18:30;96778.78;;;6.01;87.67
10464;BME280;5279;42.048;24.638;2023-11-18T07:20:59;96780.41;;;6.02;88.79
10464;BME280;5279;42.048;24.638;2023-11-18T07:23:25;96776.56;;;6.06;90.38
10464;BME280;5279;42.048;24.638;2023-11-18T07:25:53;96770.34;;;6.07;84.95
10464;BME280;5279;42.048;24.638;2023-11-18T07:28:21;96776.00;;;6.12;86.52
10464;BME280;5279;42.048;24.638;2023-11-18T07:30:49;96791.25;;;6.18;84.95
10464;BME280;5279;42.048;24.638;2023-11-18T07:33:17;96770.47;;;6.15;83.59
10464;BME280;5279;42.048;24.638;2023-11-18T07:35:44;96762.31;;;6.18;87.50
10464;BME280;5279;42.048;24.638;2023-11-18T07:38:12;96767.00;;;6.24;84.51
10464;BME280;5279;42.048;24.638;2023-11-18T07:40:39;96755.53;;;6.25;82.99
10464;BME280;5279;42.048;24.638;2023-11-18T07:43:08;96753.31;;;6.30;83.72
10464;BME280;5279;42.048;24.638;2023-11-18T07:45:37;96753.31;;;6.30;85.08
10464;BME280;5279;42.048;24.638;2023-11-18T07:48:05;96752.63;;;6.28;79.72
10464;BME280;5279;42.048;24.638;2023-11-18T07:50:33;96747.22;;;6.39;82.39
10464;BME280;5279;42.048;24.638;2023-11-18T07:53:00;96742.50;;;6.33;81.51
10464;BME280;5279;42.048;24.638;2023-11-18T07:55:27;96736.13;;;6.45;79.20
10464;BME280;5279;42.048;24.638;2023-11-18T07:57:54;96724.50;;;6.38;81.18
10464;BME280;5279;42.048;24.638;2023-11-18T08:00:21;96737.50;;;6.49;80.11
10464;BME280;5279;42.048;24.638;2023-11-18T08:02:50;96746.66;;;6.45;79.18
10464;BME280;5279;42.048;24.638;2023-11-18T08:05:19;96750.41;;;6.52;80.43
10464;BME280;5279;42.048;24.638;2023-11-18T08:07:48;96743.88;;;6.56;79.19
10464;BME280;5279;42.048;24.638;2023-11-18T08:10:19;96747.19;;;6.58;77.95
10464;BME280;5279;42.048;24.638;2023-11-18T08:12:47;96746.66;;;6.55;78.05
10464;BME280;5279;42.048;24.638;2023-11-18T08:15:14;96749.16;;;6.47;78.23
10464;BME280;5279;42.048;24.638;2023-11-18T08:17:41;96747.88;;;6.60;79.00
10464;BME280;5279;42.048;24.638;2023-11-18T08:20:10;96746.63;;;6.65;79.27
10464;BME280;5279;42.048;24.638;2023-11-18T08:22:40;96735.81;;;6.68;75.72
10464;BME280;5279;42.048;24.638;2023-11-18T08:25:08;96742.88;;;6.67;75.49
10464;BME280;5279;42.048;24.638;2023-11-18T08:27:35;96736.22;;;6.63;74.13
10464;BME280;5279;42.048;24.638;2023-11-18T08:30:02;96746.47;;;6.66;75.47
10464;BME280;5279;42.048;24.638;2023-11-18T08:32:31;96739.13;;;6.70;72.71
10464;BME280;5279;42.048;24.638;2023-11-18T08:34:58;96746.19;;;6.69;74.82
10464;BME280;5279;42.048;24.638;2023-11-18T08:37:26;96745.50;;;6.67;72.53
10464;BME280;5279;42.048;24.638;2023-11-18T08:39:53;96741.09;;;6.68;73.37
10464;BME280;5279;42.048;24.638;2023-11-18T08:42:21;96747.16;;;6.78;75.95
10464;BME280;5279;42.048;24.638;2023-11-18T08:44:49;96743.53;;;6.79;74.70
10464;BME280;5279;42.048;24.638;2023-11-18T08:50:39;96764.59;;;6.79;73.80
10464;BME280;5279;42.048;24.638;2023-11-18T08:53:08;96748.25;;;6.85;72.76
10464;BME280;5279;42.048;24.638;2023-11-18T08:55:35;96747.13;;;6.87;73.03
10464;BME280;5279;42.048;24.638;2023-11-18T08:58:16;96751.41;;;6.98;73.19
10464;BME280;5279;42.048;24.638;2023-11-18T09:00:46;96743.50;;;6.98;71.86
10464;BME280;5279;42.048;24.638;2023-11-18T09:03:14;96729.88;;;7.02;74.94
10464;BME280;5279;42.048;24.638;2023-11-18T09:05:50;96757.03;;;7.12;72.29
10464;BME280;5279;42.048;24.638;2023-11-18T09:08:28;96760.06;;;7.18;70.51
10464;BME280;5279;42.048;24.638;2023-11-18T09:10:58;96771.44;;;7.18;72.80
10464;BME280;5279;42.048;24.638;2023-11-18T09:13:26;96730.78;;;7.21;71.25
10464;BME280;5279;42.048;24.638;2023-11-18T09:15:55;96736.47;;;7.26;73.82
10464;BME280;5279;42.048;24.638;2023-11-18T09:18:23;96740.31;;;7.31;69.14
10464;BME280;5279;42.048;24.638;2023-11-18T09:20:50;96752.25;;;7.35;70.77
10464;BME280;5279;42.048;24.638;2023-11-18T09:23:18;96753.06;;;7.36;68.18
10464;BME280;5279;42.048;24.638;2023-11-18T09:25:47;96745.31;;;7.34;69.22
10464;BME280;5279;42.048;24.638;2023-11-18T09:28:14;96743.63;;;7.33;68.38
10464;BME280;5279;42.048;24.638;2023-11-18T09:30:42;96752.75;;;7.39;71.78
10464;BME280;5279;42.048;24.638;2023-11-18T09:33:17;96732.94;;;7.44;69.42
10464;BME280;5279;42.048;24.638;2023-11-18T09:35:52;96723.34;;;7.43;67.56
10464;BME280;5279;42.048;24.638;2023-11-18T09:38:22;96754.97;;;7.43;69.72
10464;BME280;5279;42.048;24.638;2023-11-18T09:40:51;96741.41;;;7.38;68.03
10464;BME280;5279;42.048;24.638;2023-11-18T09:43:19;96723.84;;;7.29;67.91
10464;BME280;5279;42.048;24.638;2023-11-18T09:45:49;96738.19;;;7.17;67.76
10464;BME280;5279;42.048;24.638;2023-11-18T09:48:18;96738.47;;;7.14;69.12
10464;BME280;5279;42.048;24.638;2023-11-18T09:50:51;96744.03;;;7.11;67.26
10464;BME280;5279;42.048;24.638;2023-11-18T09:53:19;96724.31;;;7.15;67.80
10464;BME280;5279;42.048;24.638;2023-11-18T09:55:54;96730.94;;;7.19;69.05
10464;BME280;5279;42.048;24.638;2023-11-18T09:58:32;96733.19;;;7.14;66.82
10464;BME280;5279;42.048;24.638;2023-11-18T10:01:07;96726.84;;;7.07;66.49
10464;BME280;5279;42.048;24.638;2023-11-18T10:03:40;96740.69;;;7.09;66.17
10464;BME280;5279;42.048;24.638;2023-11-18T10:06:09;96732.91;;;7.17;65.60
10464;BME280;5279;42.048;24.638;2023-11-18T10:08:36;96735.13;;;7.12;65.75
10464;BME280;5279;42.048;24.638;2023-11-18T10:11:06;96728.34;;;7.09;65.91
10464;BME280;5279;42.048;24.638;2023-11-18T10:13:35;96741.19;;;7.22;65.80
10464;BME280;5279;42.048;24.638;2023-11-18T10:16:06;96734.53;;;7.18;65.59
10464;BME280;5279;42.048;24.638;2023-11-18T10:18:34;96733.19;;;7.14;68.22
10464;BME280;5279;42.048;24.638;2023-11-18T10:21:02;96737.38;;;7.07;66.69
10464;BME280;5279;42.048;24.638;2023-11-18T10:23:33;96725.59;;;7.11;66.44
10464;BME280;5279;42.048;24.638;2023-11-18T10:26:05;96729.28;;;7.18;66.65
10464;BME280;5279;42.048;24.638;2023-11-18T10:28:34;96740.56;;;7.10;67.26
10464;BME280;5279;42.048;24.638;2023-11-18T10:31:04;96723.75;;;7.11;66.88
10464;BME280;5279;42.048;24.638;2023-11-18T10:33:32;96709.78;;;7.11;66.37
10464;BME280;5279;42.048;24.638;2023-11-18T10:36:03;96727.94;;;7.14;65.99
10464;BME280;5279;42.048;24.638;2023-11-18T10:38:38;96728.81;;;7.05;65.93
10464;BME280;5279;42.048;24.638;2023-11-18T10:41:10;96725.16;;;7.06;65.35
10464;BME280;5279;42.048;24.638;2023-11-18T10:43:37;96725.16;;;7.06;66.98
10464;BME280;5279;42.048;24.638;2023-11-18T10:46:08;96720.19;;;7.03;65.87
10464;BME280;5279;42.048;24.638;2023-11-18T10:48:42;96720.91;;;7.05;66.47
10464;BME280;5279;42.048;24.638;2023-11-18T10:51:10;96732.41;;;7.04;68.17
10464;BME280;5279;42.048;24.638;2023-11-18T10:53:39;96724.03;;;7.08;66.32
10464;BME280;5279;42.048;24.638;2023-11-18T10:56:17;96711.91;;;6.98;65.75
10464;BME280;5279;42.048;24.638;2023-11-18T10:58:52;96709.16;;;6.90;65.61
10464;BME280;5279;42.048;24.638;2023-11-18T11:01:27;96707.78;;;6.86;66.43
10464;BME280;5279;42.048;24.638;2023-11-18T11:03:54;96701.13;;;6.82;66.96
10464;BME280;5279;42.048;24.638;2023-11-18T11:06:23;96698.09;;;6.86;68.72
10464;BME280;5279;42.048;24.638;2023-11-18T11:08:50;96701.94;;;6.92;67.60
10464;BME280;5279;42.048;24.638;2023-11-18T11:11:21;96716.38;;;6.88;66.43
10464;BME280;5279;42.048;24.638;2023-11-18T11:13:50;96709.47;;;6.87;66.97
10464;BME280;5279;42.048;24.638;2023-11-18T11:16:23;96705.00;;;6.87;67.17
10464;BME280;5279;42.048;24.638;2023-11-18T11:19:03;96707.50;;;6.89;65.92
10464;BME280;5279;42.048;24.638;2023-11-18T11:21:37;96710.72;;;6.83;65.19
10464;BME280;5279;42.048;24.638;2023-11-18T11:24:20;96708.06;;;6.83;65.66
10464;BME280;5279;42.048;24.638;2023-11-18T11:27:09;96715.53;;;6.87;66.46
10464;BME280;5279;42.048;24.638;2023-11-18T11:29:49;96716.38;;;6.88;64.62
10464;BME280;5279;42.048;24.638;2023-11-18T11:32:25;96714.44;;;6.90;65.64
10464;BME280;5279;42.048;24.638;2023-11-18T11:34:59;96702.63;;;6.94;64.31
10464;BME280;5279;42.048;24.638;2023-11-18T11:37:33;96731.03;;;6.90;65.64
10464;BME280;5279;42.048;24.638;2023-11-18T11:40:02;96713.72;;;6.88;65.54
10464;BME280;5279;42.048;24.638;2023-11-18T11:42:36;96696.69;;;6.92;64.59
10464;BME280;5279;42.048;24.638;2023-11-18T11:45:06;96707.50;;;6.89;64.58
10464;BME280;5279;42.048;24.638;2023-11-18T11:47:45;96702.22;;;6.89;64.86
10464;BME280;5279;42.048;24.638;2023-11-18T11:50:16;96709.47;;;6.87;65.18
10464;BME280;5279;42.048;24.638;2023-11-18T11:52:53;96724.69;;;6.93;65.20
10464;BME280;5279;42.048;24.638;2023-11-18T11:55:32;96707.22;;;6.92;64.20
10464;BME280;5279;42.048;24.638;2023-11-18T11:58:03;96720.63;;;6.98;64.19
10464;BME280;5279;42.048;24.638;2023-11-18T12:00:31;96717.44;;;7.04;66.19
10464;BME280;5279;42.048;24.638;2023-11-18T12:03:01;96719.50;;;7.01;63.32
10464;BME280;5279;42.048;24.638;2023-11-18T12:05:30;96711.28;;;7.13;63.80
10464;BME280;5279;42.048;24.638;2023-11-18T12:07:59;96709.34;;;7.15;65.61
10464;BME280;5279;42.048;24.638;2023-11-18T12:10:30;96716.56;;;7.13;63.75
10464;BME280;5279;42.048;24.638;2023-11-18T12:13:08;96726.84;;;7.07;62.58
10464;BME280;5279;42.048;24.638;2023-11-18T12:15:48;96726.25;;;7.13;62.67
10464;BME280;5279;42.048;24.638;2023-11-18T12:18:24;96726.56;;;7.10;62.88
10464;BME280;5279;42.048;24.638;2023-11-18T12:20:51;96734.19;;;7.03;63.57
10464;BME280;5279;42.048;24.638;2023-11-18T12:23:21;96729.88;;;7.02;63.25
10464;BME280;5279;42.048;24.638;2023-11-18T12:25:50;96731.56;;;7.03;62.84
10464;BME280;5279;42.048;24.638;2023-11-18T12:28:25;96733.34;;;7.03;63.07
10464;BME280;5279;42.048;24.638;2023-11-18T12:30:53;96732.41;;;7.04;63.21
10464;BME280;5279;42.048;24.638;2023-11-18T12:37:06;96743.59;;;7.06;63.03
10464;BME280;5279;42.048;24.638;2023-11-18T12:40:23;96759.31;;;6.98;61.78
10464;BME280;5279;42.048;24.638;2023-11-18T12:43:01;96742.66;;;6.97;62.74
10464;BME280;5279;42.048;24.638;2023-11-18T12:46:04;96748.22;;;6.94;62.04
10464;BME280;5279;42.048;24.638;2023-11-18T12:48:43;96733.84;;;6.89;62.28
10464;BME280;5279;42.048;24.638;2023-11-18T12:51:12;96730.91;;;6.92;63.35
10464;BME280;5279;42.048;24.638;2023-11-18T12:53:47;96729.94;;;6.93;64.17
10464;BME280;5279;42.048;24.638;2023-11-18T12:56:17;96730.53;;;6.87;62.50
10464;BME280;5279;42.048;24.638;2023-11-18T12:58:45;96739.66;;;6.92;62.46
10464;BME280;5279;42.048;24.638;2023-11-18T13:01:14;96740.47;;;6.93;61.32
10464;BME280;5279;42.048;24.638;2023-11-18T13:03:41;96738.81;;;6.92;63.28
10464;BME280;5279;42.048;24.638;2023-11-18T13:06:10;96735.59;;;6.98;63.09
10464;BME280;5279;42.048;24.638;2023-11-18T13:08:39;96746.13;;;6.98;61.85
10464;BME280;5279;42.048;24.638;2023-11-18T13:11:06;96752.66;;;6.94;62.12
10464;BME280;5279;42.048;24.638;2023-11-18T13:13:38;96745.75;;;6.93;63.24
10464;BME280;5279;42.048;24.638;2023-11-18T13:16:06;96766.53;;;6.96;61.83
10464;BME280;5279;42.048;24.638;2023-11-18T13:18:43;96752.66;;;6.94;61.47
10464;BME280;5279;42.048;24.638;2023-11-18T13:21:13;96758.22;;;6.91;61.40
10464;BME280;5279;42.048;24.638;2023-11-18T13:23:41;96749.34;;;6.92;61.48